createdAt,value
2019-04-26T00:01:59.709Z,0.80
2019-04-26T00:04:28.292Z,2.00
2019-04-26T00:06:56.622Z,2.83
2019-04-26T00:09:26.716Z,2.93
2019-04-26T00:12:12.705Z,1.63
2019-04-26T00:14:51.217Z,2.83
2019-04-26T00:17:23.909Z,2.77
2019-04-26T00:19:52.556Z,0.80
2019-04-26T00:22:21.202Z,0.97
2019-04-26T00:24:49.625Z,1.83
2019-04-26T00:27:18.922Z,2.40
2019-04-26T00:29:47.355Z,1.00
2019-04-26T00:32:17.174Z,1.20
2019-04-26T00:34:45.546Z,2.00
2019-04-26T00:37:14.130Z,4.30
2019-04-26T00:39:42.430Z,1.40
2019-04-26T00:42:10.790Z,1.57
2019-04-26T00:44:39.066Z,1.30
2019-04-26T00:47:07.380Z,5.30
2019-04-26T00:49:43.514Z,1.10
2019-04-26T00:52:05.697Z,2.30
2019-04-26T00:54:33.952Z,0.90
2019-04-26T00:57:02.258Z,3.30
2019-04-26T00:59:30.865Z,1.10
2019-04-26T01:02:03.311Z,1.30
2019-04-26T01:04:31.566Z,3.20
2019-04-26T01:07:00.247Z,1.23
2019-04-26T01:09:28.500Z,3.33
2019-04-26T01:11:56.785Z,2.57
2019-04-26T01:14:26.163Z,1.53
2019-04-26T01:16:54.567Z,1.57
2019-04-26T01:19:24.559Z,1.30
2019-04-26T01:21:55.946Z,1.67
2019-04-26T01:24:25.261Z,1.33
2019-04-26T01:26:53.710Z,1.30
2019-04-26T01:29:21.957Z,2.47
2019-04-26T01:32:11.291Z,2.73
2019-04-26T01:34:40.472Z,2.60
2019-04-26T01:37:08.822Z,1.63
2019-04-26T01:39:38.711Z,1.53
2019-04-26T01:42:14.547Z,1.70
2019-04-26T01:44:48.002Z,2.57
2019-04-26T01:47:16.269Z,3.70
2019-04-26T01:49:44.517Z,3.63
2019-04-26T01:52:13.564Z,2.57
2019-04-26T01:54:42.557Z,1.50
2019-04-26T01:57:11.066Z,3.57
2019-04-26T01:59:41.754Z,1.60
2019-04-26T02:02:17.440Z,1.13
2019-04-26T02:04:47.325Z,4.93
2019-04-26T02:07:17.242Z,7.70
2019-04-26T02:09:45.493Z,5.23
2019-04-26T02:12:13.752Z,1.63
2019-04-26T02:14:42.042Z,2.77
2019-04-26T02:17:10.338Z,3.93
2019-04-26T02:19:38.685Z,1.73
2019-04-26T02:22:08.566Z,2.00
2019-04-26T02:24:38.499Z,6.30
2019-04-26T02:27:08.381Z,4.93
2019-04-26T02:29:36.665Z,1.60
2019-04-26T02:32:05.787Z,1.93
2019-04-26T02:34:36.026Z,1.47
2019-04-26T02:37:04.586Z,1.43
2019-04-26T02:39:38.603Z,2.83
2019-04-26T02:42:18.717Z,1.63
2019-04-26T02:44:51.742Z,4.03
2019-04-26T02:47:39.770Z,1.13
2019-04-26T02:50:15.132Z,1.30
2019-04-26T02:52:52.326Z,1.20
2019-04-26T02:55:55.399Z,2.47
2019-04-26T02:58:23.659Z,2.40
2019-04-26T03:00:52.071Z,2.00
2019-04-26T03:03:20.317Z,2.13
2019-04-26T03:05:48.615Z,1.00
2019-04-26T03:08:18.989Z,2.13
2019-04-26T03:10:49.576Z,1.50
2019-04-26T03:13:19.470Z,3.30
2019-04-26T03:16:01.497Z,1.47
2019-04-26T03:18:49.521Z,2.00
2019-04-26T03:21:39.367Z,2.23
2019-04-26T03:24:16.923Z,2.77
2019-04-26T03:26:56.985Z,2.23
2019-04-26T03:29:49.221Z,1.50
2019-04-26T03:32:51.446Z,2.50
2019-04-26T03:35:55.494Z,4.03
2019-04-26T03:38:43.636Z,1.83
2019-04-26T03:41:34.402Z,1.33
2019-04-26T03:44:25.790Z,1.40
2019-04-26T03:46:56.747Z,1.53
2019-04-26T03:49:44.144Z,1.77
2019-04-26T03:52:24.901Z,2.57
2019-04-26T03:55:05.270Z,2.23
2019-04-26T03:57:56.105Z,1.93
2019-04-26T04:00:41.523Z,1.97
2019-04-26T04:03:20.120Z,3.30
2019-04-26T04:05:53.290Z,1.57
2019-04-26T04:08:24.808Z,1.77
2019-04-26T04:10:59.410Z,1.43
2019-04-26T04:13:45.709Z,1.70
2019-04-26T04:16:24.816Z,2.00
2019-04-26T04:19:04.896Z,2.73
2019-04-26T04:21:50.002Z,1.13
2019-04-26T04:24:21.685Z,4.20
2019-04-26T04:27:11.254Z,5.37
2019-04-26T04:29:55.193Z,3.50
2019-04-26T04:32:24.450Z,2.87
2019-04-26T04:34:53.851Z,4.00
2019-04-26T04:37:22.125Z,3.90
2019-04-26T04:40:20.852Z,2.13
2019-04-26T04:43:03.069Z,5.17
2019-04-26T04:46:09.359Z,2.97
2019-04-26T04:49:06.600Z,2.80
2019-04-26T04:51:40.843Z,1.73
2019-04-26T04:54:18.578Z,2.43
2019-04-26T04:56:55.526Z,2.10
2019-04-26T04:59:50.122Z,3.00
2019-04-26T05:02:47.242Z,2.90
2019-04-26T05:05:41.029Z,2.23
2019-04-26T05:08:22.339Z,4.57
2019-04-26T05:10:56.590Z,2.53
2019-04-26T05:13:45.228Z,3.30
2019-04-26T05:16:45.441Z,4.53
2019-04-26T05:19:50.582Z,4.67
2019-04-26T05:22:38.446Z,5.53
2019-04-26T05:25:49.371Z,4.43
2019-04-26T05:28:37.590Z,4.07
2019-04-26T05:31:26.986Z,7.40
2019-04-26T05:34:17.810Z,3.90
2019-04-26T05:36:58.023Z,2.43
2019-04-26T05:39:29.786Z,4.13
2019-04-26T05:42:14.996Z,5.03
2019-04-26T05:45:09.854Z,3.87
2019-04-26T05:48:03.237Z,6.93
2019-04-26T05:50:42.985Z,7.23
2019-04-26T05:53:58.014Z,7.53
2019-04-26T05:56:54.815Z,4.33
2019-04-26T05:59:44.423Z,4.63
2019-04-26T06:02:56.794Z,6.50
2019-04-26T06:05:44.387Z,7.73
2019-04-26T06:08:34.736Z,7.47
2019-04-26T06:11:12.316Z,6.80
2019-04-26T06:14:03.286Z,10.70
2019-04-26T06:16:53.151Z,8.87
2019-04-26T06:19:43.915Z,9.10
2019-04-26T06:22:27.495Z,8.07
2019-04-26T06:25:00.668Z,10.87
2019-04-26T06:27:59.287Z,11.67
2019-04-26T06:30:30.835Z,10.17
2019-04-26T06:33:15.178Z,7.73
2019-04-26T06:35:45.271Z,9.10
2019-04-26T06:38:43.726Z,11.03
2019-04-26T06:41:21.818Z,7.43
2019-04-26T06:43:56.967Z,7.90
2019-04-26T06:47:16.657Z,7.87
2019-04-26T06:50:05.526Z,7.67
2019-04-26T06:52:36.872Z,10.90
2019-04-26T06:55:12.635Z,8.40
2019-04-26T06:58:09.325Z,9.97
2019-04-26T07:00:48.285Z,10.03
2019-04-26T07:03:46.654Z,8.07
2019-04-26T07:06:16.034Z,8.43
2019-04-26T07:08:57.455Z,6.93
2019-04-26T07:11:31.471Z,7.90
2019-04-26T07:14:14.911Z,9.67
2019-04-26T07:16:55.149Z,9.53
2019-04-26T07:20:00.828Z,8.37
2019-04-26T07:22:37.170Z,10.13
2019-04-26T07:25:33.459Z,11.60
2019-04-26T07:28:10.787Z,10.93
2019-04-26T07:31:01.375Z,7.70
2019-04-26T07:33:40.094Z,9.80
2019-04-26T07:36:16.152Z,7.40
2019-04-26T07:39:15.637Z,9.50
2019-04-26T07:41:59.197Z,10.83
2019-04-26T07:44:47.301Z,10.90
2019-04-26T07:47:39.397Z,9.17
2019-04-26T07:50:14.195Z,8.30
2019-04-26T07:53:03.210Z,12.17
2019-04-26T07:55:40.994Z,13.00
2019-04-26T07:58:43.785Z,11.57
2019-04-26T08:01:28.731Z,13.97
2019-04-26T08:04:05.240Z,13.53
2019-04-26T08:06:49.907Z,13.13
2019-04-26T08:09:26.912Z,14.23
2019-04-26T08:11:54.529Z,13.00
2019-04-26T08:14:25.222Z,12.87
2019-04-26T08:17:20.170Z,13.50
2019-04-26T08:20:41.125Z,12.03
2019-04-26T08:23:27.203Z,10.97
2019-04-26T08:25:40.160Z,10.70
2019-04-26T08:28:08.576Z,14.50
2019-04-26T08:30:47.104Z,12.20
2019-04-26T08:33:16.140Z,9.83
2019-04-26T08:35:48.970Z,11.53
2019-04-26T08:38:20.823Z,11.63
2019-04-26T08:40:44.849Z,10.73
2019-04-26T08:43:27.295Z,10.03
2019-04-26T08:46:03.213Z,15.07
2019-04-26T08:48:39.256Z,10.93
2019-04-26T08:51:23.330Z,8.37
2019-04-26T08:53:52.712Z,9.20
2019-04-26T08:56:24.337Z,8.60
2019-04-26T08:58:56.156Z,8.40
2019-04-26T09:01:38.199Z,7.13
2019-04-26T09:04:08.106Z,6.60
2019-04-26T09:06:40.869Z,5.60
2019-04-26T09:09:14.298Z,5.33
2019-04-26T09:11:41.030Z,5.53
2019-04-26T09:14:09.298Z,5.03
2019-04-26T09:16:49.630Z,7.57
2019-04-26T09:19:07.711Z,4.30
2019-04-26T09:21:37.646Z,6.27
2019-04-26T09:24:08.427Z,5.53
2019-04-26T09:26:48.507Z,4.80
2019-04-26T09:29:33.210Z,8.43
2019-04-26T09:32:03.174Z,7.77
2019-04-26T09:34:36.020Z,5.83
2019-04-26T09:37:04.307Z,7.13
2019-04-26T09:39:32.616Z,5.80
2019-04-26T09:42:17.304Z,6.43
2019-04-26T09:44:47.291Z,5.83
2019-04-26T09:47:23.035Z,6.83
2019-04-26T09:49:53.035Z,4.00
2019-04-26T09:52:28.579Z,4.00
2019-04-26T09:54:56.951Z,4.83
2019-04-26T09:57:25.256Z,5.47
2019-04-26T09:59:53.555Z,4.47
2019-04-26T10:02:21.948Z,4.83
2019-04-26T10:04:50.234Z,4.07
2019-04-26T10:07:18.585Z,5.63
2019-04-26T10:09:46.895Z,3.83
2019-04-26T10:12:16.809Z,3.87
2019-04-26T10:14:52.612Z,5.07
2019-04-26T10:17:22.506Z,4.93
2019-04-26T10:19:52.264Z,6.30
2019-04-26T10:22:21.527Z,7.90
2019-04-26T10:24:49.885Z,5.80
2019-04-26T10:27:18.248Z,8.80
2019-04-26T10:29:46.536Z,5.23
2019-04-26T10:32:14.835Z,6.20
2019-04-26T10:34:47.314Z,4.80
2019-04-26T10:37:13.178Z,6.27
2019-04-26T10:39:41.551Z,5.07
2019-04-26T10:42:09.831Z,7.80
2019-04-26T10:44:39.851Z,8.30
2019-04-26T10:47:08.118Z,5.37
2019-04-26T10:49:39.667Z,9.97
2019-04-26T10:52:12.034Z,5.33
2019-04-26T10:54:44.583Z,7.00
2019-04-26T10:57:15.997Z,6.57
2019-04-26T10:59:45.923Z,8.10
2019-04-26T11:02:15.876Z,9.47
2019-04-26T11:04:44.184Z,9.23
2019-04-26T11:07:12.466Z,13.67
2019-04-26T11:09:40.826Z,11.93
2019-04-26T11:12:09.424Z,12.67
2019-04-26T11:14:37.725Z,11.83
2019-04-26T11:17:06.664Z,12.37
2019-04-26T11:19:35.511Z,12.87
2019-04-26T11:22:04.889Z,12.80
2019-04-26T11:24:33.215Z,12.23
2019-04-26T11:27:01.531Z,13.67
2019-04-26T11:29:30.198Z,16.53
2019-04-26T11:32:02.560Z,13.97
2019-04-26T11:34:28.743Z,12.97
2019-04-26T11:36:57.102Z,13.17
2019-04-26T11:39:27.959Z,13.23
2019-04-26T11:41:55.439Z,12.47
2019-04-26T11:44:27.513Z,12.70
2019-04-26T11:46:53.804Z,14.37
2019-04-26T11:49:22.136Z,13.90
2019-04-26T11:51:50.450Z,15.43
2019-04-26T11:54:20.787Z,11.83
2019-04-26T11:56:50.317Z,14.27
2019-04-26T11:59:18.867Z,12.33
2019-04-26T12:01:47.250Z,12.53
2019-04-26T12:04:17.182Z,13.90
2019-04-26T12:06:52.891Z,14.77
2019-04-26T12:09:37.544Z,13.70
2019-04-26T12:12:09.128Z,14.20
2019-04-26T12:14:35.951Z,14.43
2019-04-26T12:17:05.089Z,13.73
2019-04-26T12:19:33.759Z,16.97
2019-04-26T12:22:04.321Z,14.97
2019-04-26T12:24:34.380Z,13.93
2019-04-26T12:27:02.182Z,14.17
2019-04-26T12:29:30.477Z,16.53
2019-04-26T12:31:58.770Z,13.97
2019-04-26T12:34:27.071Z,13.50
2019-04-26T12:36:55.508Z,11.97
2019-04-26T12:39:24.049Z,13.23
2019-04-26T12:41:52.409Z,13.27
2019-04-26T12:44:20.892Z,13.33
2019-04-26T12:46:50.937Z,13.20
2019-04-26T12:49:20.355Z,13.20
2019-04-26T12:51:52.044Z,12.93
2019-04-26T12:54:19.291Z,12.33
2019-04-26T12:56:47.605Z,16.17
2019-04-26T12:59:16.105Z,14.53
2019-04-26T13:01:46.418Z,13.57
2019-04-26T13:04:14.450Z,13.07
2019-04-26T13:06:56.271Z,13.27
2019-04-26T13:09:26.604Z,13.03
2019-04-26T13:12:02.290Z,13.70
2019-04-26T13:14:32.225Z,14.37
2019-04-26T13:17:08.271Z,16.00
2019-04-26T13:19:36.566Z,12.90
2019-04-26T13:22:08.413Z,11.83
2019-04-26T13:24:35.451Z,13.03
2019-04-26T13:27:06.007Z,11.73
2019-04-26T13:29:34.940Z,12.70
2019-04-26T13:32:03.277Z,12.13
2019-04-26T13:34:33.263Z,14.13
2019-04-26T13:37:02.984Z,13.87
2019-04-26T13:39:31.473Z,13.43
2019-04-26T13:42:04.615Z,12.63
2019-04-26T13:44:47.367Z,14.10
2019-04-26T13:47:17.286Z,12.37
2019-04-26T13:49:52.350Z,12.40
2019-04-26T13:52:20.200Z,11.90
2019-04-26T13:54:51.258Z,13.20
2019-04-26T13:57:18.556Z,12.60
2019-04-26T13:59:46.865Z,12.40
2019-04-26T14:02:15.576Z,11.47
2019-04-26T14:04:43.889Z,12.03
2019-04-26T14:07:12.160Z,14.93
2019-04-26T14:09:40.490Z,15.20
2019-04-26T14:12:18.404Z,13.00
2019-04-26T14:14:38.841Z,12.40
2019-04-26T14:17:07.113Z,12.20
2019-04-26T14:19:35.404Z,13.30
2019-04-26T14:22:07.107Z,13.50
2019-04-26T14:24:35.391Z,12.63
2019-04-26T14:27:05.275Z,13.83
2019-04-26T14:29:33.959Z,11.97
2019-04-26T14:32:02.312Z,12.23
2019-04-26T14:34:30.611Z,13.40
2019-04-26T14:37:06.480Z,11.40
2019-04-26T14:39:35.274Z,10.00
2019-04-26T14:41:58.931Z,11.33
2019-04-26T14:44:30.932Z,9.60
2019-04-26T14:46:57.948Z,9.20
2019-04-26T14:49:38.510Z,8.57
2019-04-26T14:51:56.518Z,11.70
2019-04-26T14:54:24.808Z,8.33
2019-04-26T14:56:53.098Z,10.97
2019-04-26T14:59:44.347Z,8.90
2019-04-26T15:02:15.825Z,9.40
2019-04-26T15:04:48.681Z,9.53
2019-04-26T15:07:16.936Z,8.87
2019-04-26T15:09:45.314Z,7.63
2019-04-26T15:12:15.813Z,8.33
2019-04-26T15:14:43.626Z,8.57
2019-04-26T15:17:12.453Z,8.57
2019-04-26T15:19:45.858Z,8.07
2019-04-26T15:22:12.210Z,8.13
2019-04-26T15:24:42.130Z,8.33
2019-04-26T15:27:10.523Z,8.13
2019-04-26T15:29:38.779Z,8.60
2019-04-26T15:32:07.097Z,8.23
2019-04-26T15:34:35.376Z,6.77
2019-04-26T15:37:03.829Z,6.40
2019-04-26T15:39:34.184Z,7.30
2019-04-26T15:42:09.936Z,7.30
2019-04-26T15:44:39.836Z,7.43
2019-04-26T15:47:21.652Z,6.80
2019-04-26T15:49:52.929Z,6.03
2019-04-26T15:52:21.339Z,6.87
2019-04-26T15:54:52.894Z,6.97
2019-04-26T15:57:19.609Z,8.57
2019-04-26T15:59:47.873Z,7.60
2019-04-26T16:02:18.450Z,6.50
2019-04-26T16:04:47.383Z,6.00
2019-04-26T16:07:27.039Z,7.33
2019-04-26T16:09:49.244Z,5.23
2019-04-26T16:12:16.225Z,5.57
2019-04-26T16:14:44.508Z,5.53
2019-04-26T16:17:12.933Z,9.73
2019-04-26T16:19:41.185Z,5.33
2019-04-26T16:22:09.490Z,7.87
2019-04-26T16:24:37.779Z,7.20
2019-04-26T16:27:06.136Z,4.23
2019-04-26T16:29:38.987Z,5.43
2019-04-26T16:32:22.031Z,5.93
2019-04-26T16:34:49.074Z,5.87
2019-04-26T16:37:21.944Z,2.80
2019-04-26T16:39:48.647Z,5.53
2019-04-26T16:42:17.135Z,3.50
2019-04-26T16:44:45.418Z,6.13
2019-04-26T16:47:13.757Z,3.93
2019-04-26T16:49:45.217Z,5.00
2019-04-26T16:52:14.040Z,6.30
2019-04-26T16:54:42.494Z,6.20
2019-04-26T16:57:12.197Z,4.77
2019-04-26T16:59:46.840Z,4.40
2019-04-26T17:02:10.654Z,2.63
2019-04-26T17:04:39.020Z,7.60
2019-04-26T17:07:07.371Z,4.17
2019-04-26T17:09:54.753Z,7.13
2019-04-26T17:12:05.729Z,3.93
2019-04-26T17:14:34.213Z,6.97
2019-04-26T17:17:03.159Z,5.37
2019-04-26T17:19:34.258Z,3.70
2019-04-26T17:22:06.109Z,2.77
2019-04-26T17:24:53.400Z,2.90
2019-04-26T17:27:23.646Z,4.33
2019-04-26T17:29:52.765Z,4.77
2019-04-26T17:32:21.218Z,5.50
2019-04-26T17:34:49.597Z,4.23
2019-04-26T17:37:21.952Z,5.30
2019-04-26T17:39:52.255Z,3.77
2019-04-26T17:42:17.911Z,7.50
2019-04-26T17:44:46.284Z,3.87
2019-04-26T17:47:14.634Z,3.93
2019-04-26T17:49:44.030Z,5.43
2019-04-26T17:52:12.430Z,3.50
2019-04-26T17:54:48.915Z,4.27
2019-04-26T17:57:14.408Z,3.30
2019-04-26T17:59:45.165Z,6.20
2019-04-26T18:02:20.548Z,11.40
2019-04-26T18:04:42.848Z,5.57
2019-04-26T18:07:34.737Z,10.57
2019-04-26T18:09:44.682Z,4.27
2019-04-26T18:12:11.860Z,3.70
2019-04-26T18:14:40.306Z,4.20
2019-04-26T18:17:10.318Z,3.23
2019-04-26T18:19:40.228Z,3.77
2019-04-26T18:22:14.690Z,4.07
2019-04-26T18:24:43.176Z,3.47
2019-04-26T18:27:11.567Z,5.47
2019-04-26T18:29:39.898Z,4.17
2019-04-26T18:32:08.302Z,6.03
2019-04-26T18:34:40.221Z,4.53
2019-04-26T18:37:07.455Z,6.53
2019-04-26T18:39:35.881Z,4.93
2019-04-26T18:42:05.863Z,4.40
2019-04-26T18:44:37.018Z,6.43
2019-04-26T18:47:16.215Z,7.63
2019-04-26T18:49:43.478Z,5.57
2019-04-26T18:52:11.620Z,7.10
2019-04-26T18:54:41.664Z,6.00
2019-04-26T18:57:15.603Z,7.80
2019-04-26T18:59:39.935Z,9.00
2019-04-26T19:02:11.474Z,6.60
2019-04-26T19:04:41.794Z,5.73
2019-04-26T19:07:08.289Z,8.23
2019-04-26T19:09:56.710Z,6.30
2019-04-26T19:12:06.585Z,5.10
2019-04-26T19:15:02.891Z,9.70
2019-04-26T19:17:26.131Z,6.90
2019-04-26T19:19:54.903Z,6.53
2019-04-26T19:22:23.229Z,8.53
2019-04-26T19:24:55.774Z,8.67
2019-04-26T19:27:26.455Z,5.53
2019-04-26T19:29:51.805Z,6.00
2019-04-26T19:32:21.841Z,9.43
2019-04-26T19:34:50.223Z,6.83
2019-04-26T19:37:18.544Z,8.20
2019-04-26T19:39:46.815Z,6.33
2019-04-26T19:42:15.075Z,6.07
2019-04-26T19:44:43.347Z,6.37
2019-04-26T19:47:13.331Z,9.40
2019-04-26T19:50:03.073Z,10.00
2019-04-26T19:52:33.753Z,10.20
2019-04-26T19:55:18.848Z,10.43
2019-04-26T19:58:01.908Z,7.30
2019-04-26T20:00:32.142Z,9.53
2019-04-26T20:03:01.633Z,8.53
2019-04-26T20:05:31.821Z,7.53
2019-04-26T20:08:04.590Z,9.50
2019-04-26T20:10:34.613Z,8.33
2019-04-26T20:13:02.555Z,8.10
2019-04-26T20:15:31.799Z,9.60
2019-04-26T20:18:03.732Z,10.00
2019-04-26T20:20:34.660Z,8.13
2019-04-26T20:23:06.020Z,7.23
2019-04-26T20:25:31.124Z,6.60
2019-04-26T20:28:00.780Z,10.40
2019-04-26T20:30:34.165Z,9.37
2019-04-26T20:33:02.496Z,8.97
2019-04-26T20:35:31.856Z,10.27
2019-04-26T20:38:03.287Z,8.53
2019-04-26T20:40:30.266Z,8.47
2019-04-26T20:43:05.640Z,9.97
2019-04-26T20:45:38.644Z,9.23
2019-04-26T20:47:58.656Z,8.83
2019-04-26T20:50:28.696Z,10.47
2019-04-26T20:53:00.733Z,10.67
2019-04-26T20:55:30.421Z,9.73
2019-04-26T20:57:59.747Z,8.93
2019-04-26T21:00:27.638Z,12.97
2019-04-26T21:03:01.342Z,10.47
2019-04-26T21:05:25.972Z,9.63
2019-04-26T21:07:54.248Z,11.80
2019-04-26T21:10:25.657Z,11.50
2019-04-26T21:12:54.962Z,12.57
2019-04-26T21:15:24.162Z,9.53
2019-04-26T21:17:56.533Z,10.80
2019-04-26T21:20:22.710Z,12.43
2019-04-26T21:22:52.392Z,12.53
2019-04-26T21:25:27.815Z,12.07
2019-04-26T21:27:56.845Z,13.10
2019-04-26T21:30:43.010Z,10.13
2019-04-26T21:33:23.860Z,10.57
2019-04-26T21:35:57.677Z,10.00
2019-04-26T21:38:33.555Z,9.23
2019-04-26T21:41:11.674Z,10.80
2019-04-26T21:43:39.317Z,10.20
2019-04-26T21:46:14.262Z,10.27
2019-04-26T21:48:41.933Z,9.73
2019-04-26T21:51:08.468Z,7.90
2019-04-26T21:53:38.270Z,8.67
2019-04-26T21:56:11.627Z,8.60
2019-04-26T21:58:37.782Z,9.80
2019-04-26T22:01:11.069Z,9.50
2019-04-26T22:03:37.747Z,8.43
2019-04-26T22:06:06.006Z,10.67
2019-04-26T22:08:35.943Z,10.33
2019-04-26T22:11:04.195Z,9.37
2019-04-26T22:13:41.652Z,10.03
2019-04-26T22:16:33.453Z,9.30
2019-04-26T22:18:50.605Z,11.47
2019-04-26T22:21:21.592Z,9.53
2019-04-26T22:23:53.050Z,7.57
2019-04-26T22:26:23.591Z,8.63
2019-04-26T22:28:53.398Z,10.20
2019-04-26T22:31:23.612Z,9.37
2019-04-26T22:33:52.807Z,9.80
2019-04-26T22:36:23.287Z,12.00
2019-04-26T22:38:57.203Z,9.93
2019-04-26T22:41:24.386Z,10.13
2019-04-26T22:43:56.368Z,9.73
2019-04-26T22:46:44.366Z,10.47
2019-04-26T22:49:05.555Z,11.23
2019-04-26T22:51:36.968Z,8.90
2019-04-26T22:54:06.216Z,11.17
2019-04-26T22:56:37.225Z,8.73
2019-04-26T22:59:07.693Z,9.60
2019-04-26T23:01:34.959Z,10.93
2019-04-26T23:04:03.796Z,11.27
2019-04-26T23:06:33.756Z,9.93
2019-04-26T23:09:02.225Z,8.80
2019-04-26T23:11:30.644Z,10.40
2019-04-26T23:14:03.572Z,11.30
2019-04-26T23:16:44.717Z,8.73
2019-04-26T23:19:15.312Z,10.07
2019-04-26T23:21:52.821Z,11.10
2019-04-26T23:24:18.795Z,11.03
2019-04-26T23:26:45.793Z,11.20
2019-04-26T23:29:16.243Z,9.47
2019-04-26T23:31:44.693Z,10.80
2019-04-26T23:34:14.264Z,11.17
2019-04-26T23:36:43.662Z,8.03
2019-04-26T23:39:13.256Z,10.60
2019-04-26T23:41:42.935Z,8.37
2019-04-26T23:44:13.223Z,8.87
2019-04-26T23:46:43.160Z,11.27
2019-04-26T23:49:11.572Z,11.27
2019-04-26T23:51:42.948Z,10.83
2019-04-26T23:54:09.965Z,8.93
2019-04-26T23:56:38.260Z,8.77
2019-04-26T23:59:06.536Z,10.93
